sensor_id;sensor_type;location;lat;lon;timestamp;P1;durP1;ratioP1;P2;durP2;ratioP2
2622;SDS011;1321;48.690;9.022;2023-04-01T00:00:01;13.07;;;12.77;;
2622;SDS011;1321;48.690;9.022;2023-04-01T00:02:30;13.37;;;13.07;;
2622;SDS011;1321;48.690;9.022;2023-04-01T00:04:59;13.33;;;13.03;;
2622;SDS011;1321;48.690;9.022;2023-04-01T00:07:29;13.90;;;13.30;;
2622;SDS011;1321;48.690;9.022;2023-04-01T00:09:58;13.87;;;13.37;;
2622;SDS011;1321;48.690;9.022;2023-04-01T00:12:26;13.50;;;13.10;;
2622;SDS011;1321;48.690;9.022;2023-04-01T00:14:54;13.70;;;13.20;;
2622;SDS011;1321;48.690;9.022;2023-04-01T00:17:22;13.80;;;13.30;;
2622;SDS011;1321;48.690;9.022;2023-04-01T00:19:51;13.10;;;12.70;;
2622;SDS011;1321;48.690;9.022;2023-04-01T00:22:19;13.40;;;13.10;;
2622;SDS011;1321;48.690;9.022;2023-04-01T00:24:49;14.07;;;13.57;;
2622;SDS011;1321;48.690;9.022;2023-04-01T00:27:17;13.53;;;13.23;;
2622;SDS011;1321;48.690;9.022;2023-04-01T00:29:46;13.23;;;12.83;;
2622;SDS011;1321;48.690;9.022;2023-04-01T00:32:15;12.93;;;12.63;;
2622;SDS011;1321;48.690;9.022;2023-04-01T00:34:43;13.33;;;13.00;;
2622;SDS011;1321;48.690;9.022;2023-04-01T00:37:11;13.93;;;13.20;;
2622;SDS011;1321;48.690;9.022;2023-04-01T00:39:40;13.60;;;13.10;;
2622;SDS011;1321;48.690;9.022;2023-04-01T00:42:09;13.40;;;13.00;;
2622;SDS011;1321;48.690;9.022;2023-04-01T00:44:38;13.40;;;13.10;;
2622;SDS011;1321;48.690;9.022;2023-04-01T00:47:07;13.87;;;13.47;;
2622;SDS011;1321;48.690;9.022;2023-04-01T00:49:36;13.73;;;13.27;;
2622;SDS011;1321;48.690;9.022;2023-04-01T00:52:08;13.53;;;12.97;;
2622;SDS011;1321;48.690;9.022;2023-04-01T00:54:40;13.17;;;12.77;;
2622;SDS011;1321;48.690;9.022;2023-04-01T00:57:12;13.20;;;12.90;;
2622;SDS011;1321;48.690;9.022;2023-04-01T00:59:43;13.50;;;13.20;;
2622;SDS011;1321;48.690;9.022;2023-04-01T01:02:16;14.23;;;13.60;;
2622;SDS011;1321;48.690;9.022;2023-04-01T01:04:44;13.73;;;13.27;;
2622;SDS011;1321;48.690;9.022;2023-04-01T01:07:16;13.60;;;13.13;;
2622;SDS011;1321;48.690;9.022;2023-04-01T01:09:56;13.90;;;13.40;;
2622;SDS011;1321;48.690;9.022;2023-04-01T01:12:33;14.00;;;13.60;;
2622;SDS011;1321;48.690;9.022;2023-04-01T01:15:08;13.80;;;13.50;;
2622;SDS011;1321;48.690;9.022;2023-04-01T01:17:48;13.80;;;13.30;;
2622;SDS011;1321;48.690;9.022;2023-04-01T01:20:36;13.43;;;13.00;;
2622;SDS011;1321;48.690;9.022;2023-04-01T01:23:42;13.20;;;13.00;;
2622;SDS011;1321;48.690;9.022;2023-04-01T01:26:33;13.53;;;13.10;;
2622;SDS011;1321;48.690;9.022;2023-04-01T01:29:11;13.63;;;13.33;;
2622;SDS011;1321;48.690;9.022;2023-04-01T01:31:58;13.97;;;13.57;;
2622;SDS011;1321;48.690;9.022;2023-04-01T01:34:34;13.60;;;13.20;;
2622;SDS011;1321;48.690;9.022;2023-04-01T01:37:09;13.30;;;13.00;;
2622;SDS011;1321;48.690;9.022;2023-04-01T01:39:41;13.47;;;13.13;;
2622;SDS011;1321;48.690;9.022;2023-04-01T01:42:12;13.70;;;13.40;;
2622;SDS011;1321;48.690;9.022;2023-04-01T01:44:43;13.80;;;13.40;;
2622;SDS011;1321;48.690;9.022;2023-04-01T01:47:13;13.53;;;13.13;;
2622;SDS011;1321;48.690;9.022;2023-04-01T01:49:42;13.20;;;12.90;;
2622;SDS011;1321;48.690;9.022;2023-04-01T01:52:13;13.70;;;13.30;;
2622;SDS011;1321;48.690;9.022;2023-04-01T01:54:46;13.60;;;13.20;;
2622;SDS011;1321;48.690;9.022;2023-04-01T01:57:15;13.20;;;12.90;;
2622;SDS011;1321;48.690;9.022;2023-04-01T01:59:45;13.57;;;13.17;;
2622;SDS011;1321;48.690;9.022;2023-04-01T02:02:16;13.50;;;13.10;;
2622;SDS011;1321;48.690;9.022;2023-04-01T02:04:45;13.10;;;12.80;;
2622;SDS011;1321;48.690;9.022;2023-04-01T02:07:18;13.03;;;12.73;;
2622;SDS011;1321;48.690;9.022;2023-04-01T02:09:51;13.50;;;13.20;;
2622;SDS011;1321;48.690;9.022;2023-04-01T02:12:19;13.40;;;13.10;;
2622;SDS011;1321;48.690;9.022;2023-04-01T02:14:52;13.60;;;13.30;;
2622;SDS011;1321;48.690;9.022;2023-04-01T02:17:22;13.27;;;12.87;;
2622;SDS011;1321;48.690;9.022;2023-04-01T02:19:53;13.90;;;13.50;;
2622;SDS011;1321;48.690;9.022;2023-04-01T02:22:27;13.00;;;12.70;;
2622;SDS011;1321;48.690;9.022;2023-04-01T02:24:58;13.30;;;12.90;;
2622;SDS011;1321;48.690;9.022;2023-04-01T02:27:30;13.00;;;12.80;;
2622;SDS011;1321;48.690;9.022;2023-04-01T02:29:59;13.70;;;13.40;;
2622;SDS011;1321;48.690;9.022;2023-04-01T02:32:27;13.07;;;12.77;;
2622;SDS011;1321;48.690;9.022;2023-04-01T02:34:56;12.93;;;12.63;;
2622;SDS011;1321;48.690;9.022;2023-04-01T02:37:27;12.80;;;12.60;;
2622;SDS011;1321;48.690;9.022;2023-04-01T02:39:58;12.80;;;12.60;;
2622;SDS011;1321;48.690;9.022;2023-04-01T02:42:30;12.80;;;12.60;;
2622;SDS011;1321;48.690;9.022;2023-04-01T02:44:58;12.70;;;12.50;;
2622;SDS011;1321;48.690;9.022;2023-04-01T02:47:26;12.63;;;12.43;;
2622;SDS011;1321;48.690;9.022;2023-04-01T02:49:54;12.67;;;12.43;;
2622;SDS011;1321;48.690;9.022;2023-04-01T02:52:24;12.50;;;12.30;;
2622;SDS011;1321;48.690;9.022;2023-04-01T02:54:54;13.00;;;12.80;;
2622;SDS011;1321;48.690;9.022;2023-04-01T02:57:23;12.70;;;12.50;;
2622;SDS011;1321;48.690;9.022;2023-04-01T02:59:52;12.97;;;12.63;;
2622;SDS011;1321;48.690;9.022;2023-04-01T03:02:20;12.90;;;12.70;;
2622;SDS011;1321;48.690;9.022;2023-04-01T03:04:48;12.73;;;12.47;;
2622;SDS011;1321;48.690;9.022;2023-04-01T03:07:16;12.50;;;12.20;;
2622;SDS011;1321;48.690;9.022;2023-04-01T03:09:44;12.50;;;12.20;;
2622;SDS011;1321;48.690;9.022;2023-04-01T03:12:14;12.40;;;12.20;;
2622;SDS011;1321;48.690;9.022;2023-04-01T03:14:42;12.40;;;12.20;;
2622;SDS011;1321;48.690;9.022;2023-04-01T03:17:10;12.50;;;12.30;;
2622;SDS011;1321;48.690;9.022;2023-04-01T03:19:38;12.63;;;12.33;;
2622;SDS011;1321;48.690;9.022;2023-04-01T03:22:06;13.13;;;12.83;;
2622;SDS011;1321;48.690;9.022;2023-04-01T03:24:36;12.80;;;12.60;;
2622;SDS011;1321;48.690;9.022;2023-04-01T03:27:05;12.40;;;12.20;;
2622;SDS011;1321;48.690;9.022;2023-04-01T03:29:34;12.60;;;12.40;;
2622;SDS011;1321;48.690;9.022;2023-04-01T03:32:02;12.60;;;12.20;;
2622;SDS011;1321;48.690;9.022;2023-04-01T03:34:31;12.77;;;12.37;;
2622;SDS011;1321;48.690;9.022;2023-04-01T03:36:59;12.57;;;12.30;;
2622;SDS011;1321;48.690;9.022;2023-04-01T03:39:27;12.53;;;12.33;;
2622;SDS011;1321;48.690;9.022;2023-04-01T03:41:56;12.53;;;12.33;;
2622;SDS011;1321;48.690;9.022;2023-04-01T03:44:24;12.70;;;12.40;;
2622;SDS011;1321;48.690;9.022;2023-04-01T03:46:53;12.30;;;12.10;;
2622;SDS011;1321;48.690;9.022;2023-04-01T03:49:21;12.17;;;11.97;;
2622;SDS011;1321;48.690;9.022;2023-04-01T03:51:50;12.60;;;12.30;;
2622;SDS011;1321;48.690;9.022;2023-04-01T03:54:18;12.20;;;12.00;;
2622;SDS011;1321;48.690;9.022;2023-04-01T03:56:46;12.30;;;12.10;;
2622;SDS011;1321;48.690;9.022;2023-04-01T03:59:15;12.73;;;12.43;;
2622;SDS011;1321;48.690;9.022;2023-04-01T04:01:43;12.20;;;11.90;;
2622;SDS011;1321;48.690;9.022;2023-04-01T04:04:14;10.80;;;10.60;;
2622;SDS011;1321;48.690;9.022;2023-04-01T04:06:42;10.80;;;10.50;;
2622;SDS011;1321;48.690;9.022;2023-04-01T04:09:11;10.77;;;10.57;;
2622;SDS011;1321;48.690;9.022;2023-04-01T04:11:39;10.87;;;10.67;;
2622;SDS011;1321;48.690;9.022;2023-04-01T04:14:07;10.80;;;10.50;;
2622;SDS011;1321;48.690;9.022;2023-04-01T04:16:35;10.80;;;10.50;;
2622;SDS011;1321;48.690;9.022;2023-04-01T04:19:03;10.70;;;10.50;;
2622;SDS011;1321;48.690;9.022;2023-04-01T04:21:33;10.80;;;10.60;;
2622;SDS011;1321;48.690;9.022;2023-04-01T04:24:01;10.63;;;10.43;;
2622;SDS011;1321;48.690;9.022;2023-04-01T04:26:30;10.80;;;10.60;;
2622;SDS011;1321;48.690;9.022;2023-04-01T04:28:59;10.80;;;10.60;;
2622;SDS011;1321;48.690;9.022;2023-04-01T04:31:27;11.03;;;10.83;;
2622;SDS011;1321;48.690;9.022;2023-04-01T04:33:56;11.20;;;11.00;;
2622;SDS011;1321;48.690;9.022;2023-04-01T04:36:25;11.30;;;11.00;;
2622;SDS011;1321;48.690;9.022;2023-04-01T04:38:55;10.80;;;10.60;;
2622;SDS011;1321;48.690;9.022;2023-04-01T04:41:24;11.07;;;10.87;;
2622;SDS011;1321;48.690;9.022;2023-04-01T04:43:53;11.57;;;11.20;;
2622;SDS011;1321;48.690;9.022;2023-04-01T04:46:22;11.43;;;11.10;;
2622;SDS011;1321;48.690;9.022;2023-04-01T04:48:51;11.23;;;10.83;;
2622;SDS011;1321;48.690;9.022;2023-04-01T04:51:19;11.30;;;11.00;;
2622;SDS011;1321;48.690;9.022;2023-04-01T04:53:48;11.53;;;11.33;;
2622;SDS011;1321;48.690;9.022;2023-04-01T04:56:19;11.83;;;11.50;;
2622;SDS011;1321;48.690;9.022;2023-04-01T04:58:49;11.60;;;11.40;;
2622;SDS011;1321;48.690;9.022;2023-04-01T05:01:17;12.27;;;11.77;;
2622;SDS011;1321;48.690;9.022;2023-04-01T05:03:46;13.37;;;12.87;;
2622;SDS011;1321;48.690;9.022;2023-04-01T05:06:14;13.37;;;12.87;;
2622;SDS011;1321;48.690;9.022;2023-04-01T05:08:45;13.10;;;12.80;;
2622;SDS011;1321;48.690;9.022;2023-04-01T05:11:14;13.10;;;12.70;;
2622;SDS011;1321;48.690;9.022;2023-04-01T05:13:45;13.00;;;12.70;;
2622;SDS011;1321;48.690;9.022;2023-04-01T05:16:14;13.10;;;12.67;;
2622;SDS011;1321;48.690;9.022;2023-04-01T05:18:44;13.70;;;13.30;;
2622;SDS011;1321;48.690;9.022;2023-04-01T05:21:13;13.60;;;13.20;;
2622;SDS011;1321;48.690;9.022;2023-04-01T05:23:42;14.20;;;13.80;;
2622;SDS011;1321;48.690;9.022;2023-04-01T05:26:11;14.30;;;14.00;;
2622;SDS011;1321;48.690;9.022;2023-04-01T05:28:40;14.00;;;13.70;;
2622;SDS011;1321;48.690;9.022;2023-04-01T05:31:10;14.40;;;14.00;;
2622;SDS011;1321;48.690;9.022;2023-04-01T05:33:38;14.13;;;13.73;;
2622;SDS011;1321;48.690;9.022;2023-04-01T05:36:07;14.20;;;13.70;;
2622;SDS011;1321;48.690;9.022;2023-04-01T05:38:36;14.50;;;14.10;;
2622;SDS011;1321;48.690;9.022;2023-04-01T05:41:05;13.93;;;13.50;;
2622;SDS011;1321;48.690;9.022;2023-04-01T05:43:35;13.90;;;13.60;;
2622;SDS011;1321;48.690;9.022;2023-04-01T05:46:03;14.00;;;13.50;;
2622;SDS011;1321;48.690;9.022;2023-04-01T05:48:33;13.80;;;13.40;;
2622;SDS011;1321;48.690;9.022;2023-04-01T05:51:02;13.93;;;13.63;;
2622;SDS011;1321;48.690;9.022;2023-04-01T05:53:31;13.77;;;13.47;;
2622;SDS011;1321;48.690;9.022;2023-04-01T05:56:02;13.50;;;13.20;;
2622;SDS011;1321;48.690;9.022;2023-04-01T05:58:30;13.33;;;13.03;;
2622;SDS011;1321;48.690;9.022;2023-04-01T06:01:01;14.00;;;13.60;;
2622;SDS011;1321;48.690;9.022;2023-04-01T06:03:39;13.90;;;13.40;;
2622;SDS011;1321;48.690;9.022;2023-04-01T06:06:10;13.80;;;13.50;;
2622;SDS011;1321;48.690;9.022;2023-04-01T06:08:42;14.00;;;13.50;;
2622;SDS011;1321;48.690;9.022;2023-04-01T06:11:14;13.57;;;13.17;;
2622;SDS011;1321;48.690;9.022;2023-04-01T06:14:00;13.70;;;13.30;;
2622;SDS011;1321;48.690;9.022;2023-04-01T06:16:40;13.90;;;13.50;;
2622;SDS011;1321;48.690;9.022;2023-04-01T06:19:24;13.80;;;13.40;;
2622;SDS011;1321;48.690;9.022;2023-04-01T06:22:05;13.53;;;13.23;;
2622;SDS011;1321;48.690;9.022;2023-04-01T06:24:51;13.70;;;13.40;;
2622;SDS011;1321;48.690;9.022;2023-04-01T06:27:55;13.83;;;13.53;;
2622;SDS011;1321;48.690;9.022;2023-04-01T06:30:36;14.07;;;13.47;;
2622;SDS011;1321;48.690;9.022;2023-04-01T06:33:15;14.27;;;13.67;;
2622;SDS011;1321;48.690;9.022;2023-04-01T06:36:10;13.90;;;13.60;;
2622;SDS011;1321;48.690;9.022;2023-04-01T06:42:00;13.83;;;13.43;;
2622;SDS011;1321;48.690;9.022;2023-04-01T06:44:47;13.93;;;13.43;;
2622;SDS011;1321;48.690;9.022;2023-04-01T06:47:25;14.00;;;13.60;;
2622;SDS011;1321;48.690;9.022;2023-04-01T06:50:05;13.67;;;13.40;;
2622;SDS011;1321;48.690;9.022;2023-04-01T06:52:43;13.50;;;13.00;;
2622;SDS011;1321;48.690;9.022;2023-04-01T06:55:21;14.97;;;14.57;;
2622;SDS011;1321;48.690;9.022;2023-04-01T06:57:55;14.10;;;13.70;;
2622;SDS011;1321;48.690;9.022;2023-04-01T07:00:27;13.93;;;13.53;;
2622;SDS011;1321;48.690;9.022;2023-04-01T07:03:00;13.70;;;13.30;;
2622;SDS011;1321;48.690;9.022;2023-04-01T07:05:34;13.20;;;13.00;;
2622;SDS011;1321;48.690;9.022;2023-04-01T07:08:05;14.00;;;13.60;;
2622;SDS011;1321;48.690;9.022;2023-04-01T07:10:42;13.47;;;13.10;;
2622;SDS011;1321;48.690;9.022;2023-04-01T07:13:13;13.20;;;12.97;;
2622;SDS011;1321;48.690;9.022;2023-04-01T07:15:49;13.90;;;13.40;;
2622;SDS011;1321;48.690;9.022;2023-04-01T07:18:28;13.70;;;13.23;;
2622;SDS011;1321;48.690;9.022;2023-04-01T07:21:03;13.70;;;13.23;;
2622;SDS011;1321;48.690;9.022;2023-04-01T07:23:38;13.70;;;13.30;;
2622;SDS011;1321;48.690;9.022;2023-04-01T07:26:13;13.80;;;13.50;;
2622;SDS011;1321;48.690;9.022;2023-04-01T07:28:47;14.10;;;13.80;;
2622;SDS011;1321;48.690;9.022;2023-04-01T07:31:19;14.03;;;13.73;;
2622;SDS011;1321;48.690;9.022;2023-04-01T07:33:56;14.07;;;13.60;;
2622;SDS011;1321;48.690;9.022;2023-04-01T07:36:32;14.43;;;14.00;;
2622;SDS011;1321;48.690;9.022;2023-04-01T07:39:08;14.40;;;13.87;;
2622;SDS011;1321;48.690;9.022;2023-04-01T07:41:49;13.87;;;13.47;;
2622;SDS011;1321;48.690;9.022;2023-04-01T07:44:25;14.37;;;14.07;;
2622;SDS011;1321;48.690;9.022;2023-04-01T07:46:59;13.57;;;13.20;;
2622;SDS011;1321;48.690;9.022;2023-04-01T07:49:39;13.93;;;13.43;;
2622;SDS011;1321;48.690;9.022;2023-04-01T07:52:16;14.20;;;13.73;;
2622;SDS011;1321;48.690;9.022;2023-04-01T07:54:53;13.90;;;13.60;;
2622;SDS011;1321;48.690;9.022;2023-04-01T07:57:27;14.37;;;13.97;;
2622;SDS011;1321;48.690;9.022;2023-04-01T08:00:04;14.10;;;13.80;;
2622;SDS011;1321;48.690;9.022;2023-04-01T08:02:42;13.70;;;13.40;;
2622;SDS011;1321;48.690;9.022;2023-04-01T08:05:19;13.93;;;13.60;;
2622;SDS011;1321;48.690;9.022;2023-04-01T08:07:55;13.77;;;13.27;;
2622;SDS011;1321;48.690;9.022;2023-04-01T08:10:35;14.30;;;13.90;;
2622;SDS011;1321;48.690;9.022;2023-04-01T08:13:10;13.50;;;13.20;;
2622;SDS011;1321;48.690;9.022;2023-04-01T08:15:48;14.83;;;14.43;;
2622;SDS011;1321;48.690;9.022;2023-04-01T08:18:26;14.40;;;14.00;;
2622;SDS011;1321;48.690;9.022;2023-04-01T08:21:05;13.90;;;13.60;;
2622;SDS011;1321;48.690;9.022;2023-04-01T08:23:40;14.60;;;14.20;;
2622;SDS011;1321;48.690;9.022;2023-04-01T08:26:13;14.30;;;13.90;;
2622;SDS011;1321;48.690;9.022;2023-04-01T08:28:49;13.70;;;13.40;;
2622;SDS011;1321;48.690;9.022;2023-04-01T08:31:22;14.00;;;13.60;;
2622;SDS011;1321;48.690;9.022;2023-04-01T08:33:57;13.67;;;13.37;;
2622;SDS011;1321;48.690;9.022;2023-04-01T08:36:27;13.60;;;13.30;;
2622;SDS011;1321;48.690;9.022;2023-04-01T08:38:59;13.33;;;13.13;;
2622;SDS011;1321;48.690;9.022;2023-04-01T08:41:40;14.47;;;13.93;;
2622;SDS011;1321;48.690;9.022;2023-04-01T08:44:39;14.40;;;14.00;;
2622;SDS011;1321;48.690;9.022;2023-04-01T08:47:20;14.00;;;13.60;;
2622;SDS011;1321;48.690;9.022;2023-04-01T08:50:23;14.87;;;14.43;;
2622;SDS011;1321;48.690;9.022;2023-04-01T08:53:03;15.33;;;14.83;;
2622;SDS011;1321;48.690;9.022;2023-04-01T08:55:40;13.90;;;13.60;;
2622;SDS011;1321;48.690;9.022;2023-04-01T08:58:31;14.70;;;14.30;;
2622;SDS011;1321;48.690;9.022;2023-04-01T09:01:16;14.70;;;14.30;;
2622;SDS011;1321;48.690;9.022;2023-04-01T09:06:52;14.50;;;14.20;;
2622;SDS011;1321;48.690;9.022;2023-04-01T09:18:54;14.90;;;14.60;;
2622;SDS011;1321;48.690;9.022;2023-04-01T09:21:44;14.80;;;14.50;;
2622;SDS011;1321;48.690;9.022;2023-04-01T09:24:26;14.70;;;14.40;;
2622;SDS011;1321;48.690;9.022;2023-04-01T09:27:10;15.30;;;14.90;;
2622;SDS011;1321;48.690;9.022;2023-04-01T09:29:59;15.10;;;14.80;;
2622;SDS011;1321;48.690;9.022;2023-04-01T09:32:58;15.40;;;15.00;;
2622;SDS011;1321;48.690;9.022;2023-04-01T09:35:50;15.27;;;14.87;;
2622;SDS011;1321;48.690;9.022;2023-04-01T09:38:35;15.03;;;14.63;;
2622;SDS011;1321;48.690;9.022;2023-04-01T09:41:13;15.20;;;14.80;;
2622;SDS011;1321;48.690;9.022;2023-04-01T09:43:54;15.00;;;14.70;;
2622;SDS011;1321;48.690;9.022;2023-04-01T09:49:24;16.63;;;16.00;;
2622;SDS011;1321;48.690;9.022;2023-04-01T09:52:10;15.10;;;14.70;;
2622;SDS011;1321;48.690;9.022;2023-04-01T09:54:58;14.67;;;14.30;;
2622;SDS011;1321;48.690;9.022;2023-04-01T10:00:46;14.30;;;14.00;;
2622;SDS011;1321;48.690;9.022;2023-04-01T10:06:58;13.90;;;13.60;;
2622;SDS011;1321;48.690;9.022;2023-04-01T10:10:07;14.03;;;13.70;;
2622;SDS011;1321;48.690;9.022;2023-04-01T10:16:03;14.20;;;13.90;;
2622;SDS011;1321;48.690;9.022;2023-04-01T10:18:51;14.80;;;14.00;;
2622;SDS011;1321;48.690;9.022;2023-04-01T10:24:56;14.20;;;13.90;;
2622;SDS011;1321;48.690;9.022;2023-04-01T10:28:03;14.07;;;13.73;;
2622;SDS011;1321;48.690;9.022;2023-04-01T10:31:13;14.80;;;14.50;;
2622;SDS011;1321;48.690;9.022;2023-04-01T10:34:12;14.70;;;14.33;;
2622;SDS011;1321;48.690;9.022;2023-04-01T10:37:09;15.55;;;15.10;;
2622;SDS011;1321;48.690;9.022;2023-04-01T10:49:10;14.70;;;14.40;;
2622;SDS011;1321;48.690;9.022;2023-04-01T10:52:11;14.60;;;14.30;;
2622;SDS011;1321;48.690;9.022;2023-04-01T10:58:00;14.07;;;13.77;;
2622;SDS011;1321;48.690;9.022;2023-04-01T11:00:57;14.60;;;14.10;;
2622;SDS011;1321;48.690;9.022;2023-04-01T11:06:49;12.40;;;12.20;;
2622;SDS011;1321;48.690;9.022;2023-04-01T11:13:03;14.67;;;13.63;;
2622;SDS011;1321;48.690;9.022;2023-04-01T11:19:32;11.90;;;11.70;;
2622;SDS011;1321;48.690;9.022;2023-04-01T11:22:21;14.20;;;13.70;;
2622;SDS011;1321;48.690;9.022;2023-04-01T11:28:32;13.90;;;13.60;;
2622;SDS011;1321;48.690;9.022;2023-04-01T11:31:23;13.80;;;13.60;;
2622;SDS011;1321;48.690;9.022;2023-04-01T11:34:04;13.77;;;13.47;;
2622;SDS011;1321;48.690;9.022;2023-04-01T11:36:42;13.27;;;13.07;;
2622;SDS011;1321;48.690;9.022;2023-04-01T11:39:21;13.30;;;13.10;;
2622;SDS011;1321;48.690;9.022;2023-04-01T11:41:56;13.70;;;13.40;;
2622;SDS011;1321;48.690;9.022;2023-04-01T11:44:39;13.50;;;13.30;;
2622;SDS011;1321;48.690;9.022;2023-04-01T11:47:20;13.40;;;13.20;;
2622;SDS011;1321;48.690;9.022;2023-04-01T11:50:02;13.40;;;13.20;;
2622;SDS011;1321;48.690;9.022;2023-04-01T11:52:52;13.77;;;13.47;;
2622;SDS011;1321;48.690;9.022;2023-04-01T11:55:31;13.90;;;13.60;;
2622;SDS011;1321;48.690;9.022;2023-04-01T12:01:23;14.03;;;13.73;;
2622;SDS011;1321;48.690;9.022;2023-04-01T12:07:05;14.20;;;13.90;;
2622;SDS011;1321;48.690;9.022;2023-04-01T12:09:43;14.00;;;13.70;;
2622;SDS011;1321;48.690;9.022;2023-04-01T12:12:22;14.20;;;13.80;;
2622;SDS011;1321;48.690;9.022;2023-04-01T12:15:00;14.50;;;14.20;;
2622;SDS011;1321;48.690;9.022;2023-04-01T12:17:43;14.10;;;13.80;;
2622;SDS011;1321;48.690;9.022;2023-04-01T12:23:15;14.07;;;13.77;;
2622;SDS011;1321;48.690;9.022;2023-04-01T12:26:05;14.10;;;13.80;;
2622;SDS011;1321;48.690;9.022;2023-04-01T12:28:54;14.00;;;13.70;;
2622;SDS011;1321;48.690;9.022;2023-04-01T12:31:38;14.13;;;13.83;;
2622;SDS011;1321;48.690;9.022;2023-04-01T12:34:24;13.90;;;13.60;;
2622;SDS011;1321;48.690;9.022;2023-04-01T12:37:18;14.40;;;14.10;;
2622;SDS011;1321;48.690;9.022;2023-04-01T12:40:16;13.70;;;13.50;;
2622;SDS011;1321;48.690;9.022;2023-04-01T12:42:57;14.03;;;13.73;;
2622;SDS011;1321;48.690;9.022;2023-04-01T12:45:33;13.90;;;13.60;;
2622;SDS011;1321;48.690;9.022;2023-04-01T12:57:20;13.67;;;13.40;;
2622;SDS011;1321;48.690;9.022;2023-04-01T13:00:12;13.60;;;13.40;;
2622;SDS011;1321;48.690;9.022;2023-04-01T13:02:57;15.17;;;14.67;;
2622;SDS011;1321;48.690;9.022;2023-04-01T13:05:56;13.40;;;13.20;;
2622;SDS011;1321;48.690;9.022;2023-04-01T13:08:40;13.70;;;13.40;;
2622;SDS011;1321;48.690;9.022;2023-04-01T13:11:18;13.87;;;13.57;;
2622;SDS011;1321;48.690;9.022;2023-04-01T13:16:57;13.45;;;13.15;;
2622;SDS011;1321;48.690;9.022;2023-04-01T13:19:34;13.80;;;13.50;;
2622;SDS011;1321;48.690;9.022;2023-04-01T13:22:13;13.60;;;13.30;;
2622;SDS011;1321;48.690;9.022;2023-04-01T13:24:49;13.43;;;13.23;;
2622;SDS011;1321;48.690;9.022;2023-04-01T13:27:29;13.80;;;13.50;;
2622;SDS011;1321;48.690;9.022;2023-04-01T13:30:04;13.40;;;13.10;;
2622;SDS011;1321;48.690;9.022;2023-04-01T13:32:47;13.73;;;13.43;;
2622;SDS011;1321;48.690;9.022;2023-04-01T13:35:27;13.00;;;12.80;;
2622;SDS011;1321;48.690;9.022;2023-04-01T13:41:09;15.20;;;14.60;;
2622;SDS011;1321;48.690;9.022;2023-04-01T13:43:45;13.70;;;13.40;;
2622;SDS011;1321;48.690;9.022;2023-04-01T13:46:28;13.50;;;13.30;;
2622;SDS011;1321;48.690;9.022;2023-04-01T13:49:21;13.80;;;13.50;;
2622;SDS011;1321;48.690;9.022;2023-04-01T13:55:23;14.20;;;13.80;;
2622;SDS011;1321;48.690;9.022;2023-04-01T14:00:54;13.77;;;13.47;;
2622;SDS011;1321;48.690;9.022;2023-04-01T14:03:27;13.80;;;13.50;;
2622;SDS011;1321;48.690;9.022;2023-04-01T14:06:02;14.20;;;13.90;;
2622;SDS011;1321;48.690;9.022;2023-04-01T14:09:06;13.40;;;13.20;;
2622;SDS011;1321;48.690;9.022;2023-04-01T14:11:50;13.67;;;13.40;;
2622;SDS011;1321;48.690;9.022;2023-04-01T14:14:30;13.60;;;13.30;;
2622;SDS011;1321;48.690;9.022;2023-04-01T14:17:10;13.80;;;13.60;;
2622;SDS011;1321;48.690;9.022;2023-04-01T14:19:53;13.97;;;13.67;;
2622;SDS011;1321;48.690;9.022;2023-04-01T14:22:36;14.40;;;14.10;;
2622;SDS011;1321;48.690;9.022;2023-04-01T14:25:14;14.83;;;14.53;;
2622;SDS011;1321;48.690;9.022;2023-04-01T14:28:03;14.87;;;14.33;;
2622;SDS011;1321;48.690;9.022;2023-04-01T14:30:45;14.50;;;14.10;;
2622;SDS011;1321;48.690;9.022;2023-04-01T14:33:46;14.03;;;13.70;;
2622;SDS011;1321;48.690;9.022;2023-04-01T14:36:27;15.77;;;15.20;;
2622;SDS011;1321;48.690;9.022;2023-04-01T14:39:10;13.47;;;13.17;;
2622;SDS011;1321;48.690;9.022;2023-04-01T14:41:51;13.93;;;13.63;;
2622;SDS011;1321;48.690;9.022;2023-04-01T14:44:52;13.90;;;13.60;;
2622;SDS011;1321;48.690;9.022;2023-04-01T14:47:41;13.17;;;12.87;;
2622;SDS011;1321;48.690;9.022;2023-04-01T14:50:14;13.60;;;13.30;;
2622;SDS011;1321;48.690;9.022;2023-04-01T14:52:46;13.00;;;12.80;;
2622;SDS011;1321;48.690;9.022;2023-04-01T14:55:29;13.23;;;13.03;;
2622;SDS011;1321;48.690;9.022;2023-04-01T14:58:10;13.10;;;12.90;;
2622;SDS011;1321;48.690;9.022;2023-04-01T15:00:48;13.50;;;13.20;;
2622;SDS011;1321;48.690;9.022;2023-04-01T15:03:24;13.20;;;12.90;;
2622;SDS011;1321;48.690;9.022;2023-04-01T15:06:01;13.50;;;13.20;;
2622;SDS011;1321;48.690;9.022;2023-04-01T15:09:00;12.80;;;12.60;;
2622;SDS011;1321;48.690;9.022;2023-04-01T15:11:41;13.10;;;12.80;;
2622;SDS011;1321;48.690;9.022;2023-04-01T15:14:34;13.27;;;13.07;;
2622;SDS011;1321;48.690;9.022;2023-04-01T15:17:29;13.50;;;13.30;;
2622;SDS011;1321;48.690;9.022;2023-04-01T15:23:09;13.60;;;13.20;;
2622;SDS011;1321;48.690;9.022;2023-04-01T15:26:00;13.40;;;13.10;;
2622;SDS011;1321;48.690;9.022;2023-04-01T15:29:02;13.80;;;13.50;;
2622;SDS011;1321;48.690;9.022;2023-04-01T15:31:45;13.30;;;13.00;;
2622;SDS011;1321;48.690;9.022;2023-04-01T15:34:26;13.80;;;13.50;;
2622;SDS011;1321;48.690;9.022;2023-04-01T15:37:04;14.00;;;13.70;;
2622;SDS011;1321;48.690;9.022;2023-04-01T15:39:42;13.40;;;13.10;;
2622;SDS011;1321;48.690;9.022;2023-04-01T15:42:27;14.37;;;13.97;;
2622;SDS011;1321;48.690;9.022;2023-04-01T15:45:15;13.37;;;13.07;;
2622;SDS011;1321;48.690;9.022;2023-04-01T15:47:53;13.33;;;13.03;;
2622;SDS011;1321;48.690;9.022;2023-04-01T15:53:29;13.23;;;13.00;;
2622;SDS011;1321;48.690;9.022;2023-04-01T15:56:16;13.07;;;12.80;;
2622;SDS011;1321;48.690;9.022;2023-04-01T15:58:55;13.40;;;13.10;;
2622;SDS011;1321;48.690;9.022;2023-04-01T16:01:33;13.43;;;13.10;;
2622;SDS011;1321;48.690;9.022;2023-04-01T16:04:11;13.00;;;12.70;;
2622;SDS011;1321;48.690;9.022;2023-04-01T16:10:02;12.80;;;12.50;;
2622;SDS011;1321;48.690;9.022;2023-04-01T16:12:41;12.50;;;12.30;;
2622;SDS011;1321;48.690;9.022;2023-04-01T16:15:22;12.47;;;12.20;;
2622;SDS011;1321;48.690;9.022;2023-04-01T16:18:08;13.37;;;12.97;;
2622;SDS011;1321;48.690;9.022;2023-04-01T16:20:54;12.67;;;12.37;;
2622;SDS011;1321;48.690;9.022;2023-04-01T16:23:30;12.40;;;12.20;;
2622;SDS011;1321;48.690;9.022;2023-04-01T16:26:07;12.37;;;11.97;;
2622;SDS011;1321;48.690;9.022;2023-04-01T16:28:42;13.03;;;12.63;;
2622;SDS011;1321;48.690;9.022;2023-04-01T16:31:25;12.30;;;12.00;;
2622;SDS011;1321;48.690;9.022;2023-04-01T16:34:01;12.77;;;12.50;;
2622;SDS011;1321;48.690;9.022;2023-04-01T16:36:36;13.70;;;13.20;;
2622;SDS011;1321;48.690;9.022;2023-04-01T16:39:25;12.57;;;12.37;;
2622;SDS011;1321;48.690;9.022;2023-04-01T16:42:07;13.00;;;12.70;;
2622;SDS011;1321;48.690;9.022;2023-04-01T16:44:46;13.30;;;12.73;;
2622;SDS011;1321;48.690;9.022;2023-04-01T16:47:18;13.10;;;12.80;;
2622;SDS011;1321;48.690;9.022;2023-04-01T16:49:50;13.37;;;12.97;;
2622;SDS011;1321;48.690;9.022;2023-04-01T16:55:16;13.00;;;12.60;;
2622;SDS011;1321;48.690;9.022;2023-04-01T16:57:48;13.00;;;12.60;;
2622;SDS011;1321;48.690;9.022;2023-04-01T17:00:23;13.13;;;12.83;;
2622;SDS011;1321;48.690;9.022;2023-04-01T17:02:57;13.00;;;12.70;;
2622;SDS011;1321;48.690;9.022;2023-04-01T17:05:37;13.17;;;12.87;;
2622;SDS011;1321;48.690;9.022;2023-04-01T17:08:16;13.43;;;13.00;;
2622;SDS011;1321;48.690;9.022;2023-04-01T17:10:53;13.40;;;13.10;;
2622;SDS011;1321;48.690;9.022;2023-04-01T17:13:40;13.33;;;13.00;;
2622;SDS011;1321;48.690;9.022;2023-04-01T17:16:23;13.63;;;13.23;;
2622;SDS011;1321;48.690;9.022;2023-04-01T17:19:04;12.43;;;12.23;;
2622;SDS011;1321;48.690;9.022;2023-04-01T17:21:50;12.93;;;12.67;;
2622;SDS011;1321;48.690;9.022;2023-04-01T17:24:31;13.10;;;12.80;;
2622;SDS011;1321;48.690;9.022;2023-04-01T17:27:13;12.50;;;12.13;;